createdAt,value
2022-08-07T00:01:44.288Z,18.07
2022-08-07T00:04:11.191Z,18.07
2022-08-07T00:06:51.162Z,18.06
2022-08-07T00:09:29.247Z,18.06
2022-08-07T00:12:04.877Z,18.10
2022-08-07T00:14:33.991Z,18.03
2022-08-07T00:17:03.730Z,18.02
2022-08-07T00:20:02.487Z,17.98
2022-08-07T00:22:35.251Z,18.02
2022-08-07T00:25:06.985Z,17.98
2022-08-07T00:27:52.255Z,17.99
2022-08-07T00:30:26.983Z,18.03
2022-08-07T00:32:58.268Z,18.05
2022-08-07T00:35:30.240Z,18.03
2022-08-07T00:38:02.701Z,17.99
2022-08-07T00:40:39.028Z,17.95
2022-08-07T00:43:58.661Z,17.91
2022-08-07T00:46:02.351Z,17.86
2022-08-07T00:48:32.607Z,17.83
2022-08-07T00:51:03.731Z,17.85
2022-08-07T00:53:39.387Z,17.86
2022-08-07T00:56:19.161Z,17.87
2022-08-07T00:58:49.720Z,17.86
2022-08-07T01:01:20.237Z,17.83
2022-08-07T01:03:56.508Z,17.68
2022-08-07T01:06:30.426Z,17.68
2022-08-07T01:09:02.796Z,17.66
2022-08-07T01:12:09.538Z,17.58
2022-08-07T01:14:28.388Z,17.51
2022-08-07T01:16:58.272Z,17.39
2022-08-07T01:19:32.611Z,17.33
2022-08-07T01:22:03.872Z,17.33
2022-08-07T01:24:38.479Z,17.32
2022-08-07T01:27:29.140Z,17.36
2022-08-07T01:29:56.067Z,17.30
2022-08-07T01:32:24.959Z,17.12
2022-08-07T01:34:56.065Z,17.11
2022-08-07T01:37:28.030Z,17.12
2022-08-07T01:39:59.961Z,17.01
2022-08-07T01:42:39.442Z,17.07
2022-08-07T01:45:22.806Z,17.13
2022-08-07T01:48:21.518Z,17.02
2022-08-07T01:50:58.912Z,16.99
2022-08-07T01:54:00.789Z,17.06
2022-08-07T01:56:25.452Z,16.97
2022-08-07T01:59:02.258Z,16.91
2022-08-07T02:01:59.851Z,16.92
2022-08-07T02:04:28.660Z,16.91
2022-08-07T02:07:00.126Z,16.88
2022-08-07T02:09:33.791Z,16.81
2022-08-07T02:12:29.335Z,16.77
2022-08-07T02:15:01.746Z,16.73
2022-08-07T02:17:37.129Z,16.70
2022-08-07T02:20:17.421Z,16.76
2022-08-07T02:22:55.102Z,16.66
2022-08-07T02:26:10.874Z,16.78
2022-08-07T02:28:24.542Z,16.64
2022-08-07T02:30:55.141Z,16.68
2022-08-07T02:33:41.844Z,16.64
2022-08-07T02:36:30.362Z,16.61
2022-08-07T02:39:00.627Z,16.55
2022-08-07T02:41:33.561Z,16.50
2022-08-07T02:44:06.499Z,16.44
2022-08-07T02:46:36.812Z,16.42
2022-08-07T02:49:05.939Z,16.43
2022-08-07T02:51:49.734Z,16.49
2022-08-07T02:54:21.811Z,16.43
2022-08-07T02:56:56.260Z,16.44
2022-08-07T02:59:27.405Z,16.42
2022-08-07T03:01:57.569Z,16.41
2022-08-07T03:04:30.876Z,16.43
2022-08-07T03:07:07.112Z,16.28
2022-08-07T03:09:43.838Z,16.31
2022-08-07T03:12:22.174Z,16.34
2022-08-07T03:14:52.882Z,16.36
2022-08-07T03:17:22.170Z,16.35
2022-08-07T03:19:54.452Z,16.34
2022-08-07T03:22:29.523Z,16.29
2022-08-07T03:25:00.982Z,16.29
2022-08-07T03:27:59.712Z,16.24
2022-08-07T03:30:20.514Z,16.35
2022-08-07T03:32:58.505Z,16.33
2022-08-07T03:35:43.815Z,16.32
2022-08-07T03:38:21.179Z,16.33
2022-08-07T03:41:00.369Z,16.36
2022-08-07T03:43:33.075Z,16.28
2022-08-07T03:46:10.434Z,16.24
2022-08-07T03:49:02.548Z,16.20
2022-08-07T03:51:47.437Z,16.22
2022-08-07T03:54:36.187Z,16.25
2022-08-07T03:57:11.846Z,16.23
2022-08-07T04:00:03.837Z,16.16
2022-08-07T04:02:33.148Z,16.25
2022-08-07T04:05:01.917Z,16.15
2022-08-07T04:07:35.828Z,16.12
2022-08-07T04:10:15.517Z,16.04
2022-08-07T04:12:44.593Z,16.10
2022-08-07T04:15:15.049Z,16.09
2022-08-07T04:18:57.257Z,16.11
2022-08-07T04:20:35.172Z,16.10
2022-08-07T04:23:06.131Z,16.07
2022-08-07T04:25:39.386Z,16.03
2022-08-07T04:28:13.542Z,15.97
2022-08-07T04:30:55.331Z,16.04
2022-08-07T04:33:27.104Z,15.99
2022-08-07T04:35:56.789Z,15.94
2022-08-07T04:38:27.338Z,15.94
2022-08-07T04:40:56.681Z,15.93
2022-08-07T04:44:10.625Z,15.95
2022-08-07T04:46:29.320Z,15.89
2022-08-07T04:49:17.531Z,15.94
2022-08-07T04:51:55.771Z,15.94
2022-08-07T04:54:31.706Z,15.95
2022-08-07T04:58:10.084Z,15.94
2022-08-07T05:00:11.306Z,15.95
2022-08-07T05:02:51.560Z,15.94
2022-08-07T05:05:53.155Z,16.02
2022-08-07T05:08:17.285Z,15.87
2022-08-07T05:11:11.905Z,16.10
2022-08-07T05:14:54.220Z,16.16
2022-08-07T05:16:47.539Z,16.17
2022-08-07T05:19:32.707Z,16.24
2022-08-07T05:22:26.829Z,16.30
2022-08-07T05:24:59.548Z,16.34
2022-08-07T05:28:16.515Z,16.42
2022-08-07T05:30:30.027Z,16.49
2022-08-07T05:33:03.361Z,16.74
2022-08-07T05:35:41.689Z,17.43
2022-08-07T05:38:12.710Z,18.14
2022-08-07T05:41:05.310Z,18.73
2022-08-07T05:43:49.718Z,18.84
2022-08-07T05:46:30.427Z,18.55
2022-08-07T05:48:59.816Z,18.35
2022-08-07T05:51:31.414Z,18.25
2022-08-07T05:54:09.726Z,17.99
2022-08-07T05:56:51.336Z,17.99
2022-08-07T05:59:20.971Z,17.92
2022-08-07T06:01:51.496Z,17.95
2022-08-07T06:04:21.324Z,17.97
2022-08-07T06:07:04.444Z,18.06
2022-08-07T06:10:04.157Z,18.10
2022-08-07T06:12:31.673Z,18.33
2022-08-07T06:15:05.732Z,18.33
2022-08-07T06:17:38.248Z,18.27
2022-08-07T06:20:12.681Z,18.28
2022-08-07T06:23:02.118Z,18.20
2022-08-07T06:25:54.028Z,18.17
2022-08-07T06:28:28.127Z,18.29
2022-08-07T06:30:58.423Z,18.37
2022-08-07T06:33:27.366Z,18.50
2022-08-07T06:36:12.201Z,18.58
2022-08-07T06:38:51.614Z,18.62
2022-08-07T06:42:00.552Z,18.71
2022-08-07T06:44:24.247Z,18.80
2022-08-07T06:47:10.153Z,18.87
2022-08-07T06:49:51.888Z,18.99
2022-08-07T06:52:31.825Z,19.16
2022-08-07T06:55:32.353Z,19.28
2022-08-07T06:58:04.821Z,19.44
2022-08-07T07:00:36.864Z,19.56
2022-08-07T07:03:08.668Z,19.66
2022-08-07T07:06:03.981Z,19.95
2022-08-07T07:08:33.549Z,20.19
2022-08-07T07:11:13.183Z,20.40
2022-08-07T07:14:01.345Z,20.62
2022-08-07T07:16:49.459Z,20.87
2022-08-07T07:19:55.698Z,21.04
2022-08-07T07:22:36.215Z,21.40
2022-08-07T07:26:30.564Z,21.64
2022-08-07T07:28:03.088Z,21.87
2022-08-07T07:30:40.157Z,21.99
2022-08-07T07:33:12.388Z,22.22
2022-08-07T07:36:04.169Z,22.12
2022-08-07T07:38:36.057Z,22.40
2022-08-07T07:41:08.548Z,22.75
2022-08-07T07:44:13.772Z,22.86
2022-08-07T07:46:37.964Z,23.05
2022-08-07T07:50:29.732Z,23.40
2022-08-07T07:52:15.837Z,23.67
2022-08-07T07:54:51.462Z,23.70
2022-08-07T07:57:52.586Z,23.78
2022-08-07T08:00:29.167Z,24.00
2022-08-07T08:03:06.306Z,24.12
2022-08-07T08:05:54.496Z,24.42
2022-08-07T08:08:34.862Z,24.62
2022-08-07T08:11:16.173Z,24.73
2022-08-07T08:13:56.393Z,24.73
2022-08-07T08:16:31.121Z,24.69
2022-08-07T08:19:17.224Z,24.85
2022-08-07T08:22:06.305Z,24.79
2022-08-07T08:25:18.690Z,24.97
2022-08-07T08:27:57.154Z,25.19
2022-08-07T08:30:34.810Z,25.09
2022-08-07T08:33:10.526Z,25.28
2022-08-07T08:35:49.690Z,25.49
2022-08-07T08:38:29.528Z,25.47
2022-08-07T08:41:03.838Z,25.23
2022-08-07T08:43:41.995Z,25.31
2022-08-07T08:46:15.465Z,25.20
2022-08-07T08:48:50.893Z,25.38
2022-08-07T08:52:12.627Z,25.37
2022-08-07T08:54:21.921Z,25.50
2022-08-07T08:56:54.631Z,25.49
2022-08-07T08:59:30.727Z,25.49
2022-08-07T09:02:16.689Z,25.83
2022-08-07T09:05:26.367Z,26.14
2022-08-07T09:08:10.402Z,26.06
2022-08-07T09:10:44.935Z,26.16
2022-08-07T09:13:19.085Z,26.34
2022-08-07T09:16:25.229Z,26.42
2022-08-07T09:19:53.438Z,26.55
2022-08-07T09:24:30.559Z,26.65
2022-08-07T09:25:17.937Z,26.57
2022-08-07T09:28:00.606Z,26.59
2022-08-07T09:30:39.296Z,26.53
2022-08-07T09:33:41.143Z,26.63
2022-08-07T09:36:12.792Z,26.30
2022-08-07T09:38:53.825Z,26.41
2022-08-07T09:41:36.292Z,26.43
2022-08-07T09:44:32.676Z,26.33
2022-08-07T09:47:52.259Z,26.47
2022-08-07T09:50:19.534Z,26.41
2022-08-07T09:52:51.743Z,26.59
2022-08-07T09:55:29.563Z,26.35
2022-08-07T09:58:42.416Z,26.45
2022-08-07T10:01:52.240Z,26.67
2022-08-07T10:04:32.939Z,26.74
2022-08-07T10:07:25.562Z,27.01
2022-08-07T10:10:06.283Z,26.78
2022-08-07T10:12:55.755Z,26.81
2022-08-07T10:15:44.515Z,27.13
2022-08-07T10:18:36.949Z,27.35
2022-08-07T10:22:15.134Z,27.49
2022-08-07T10:24:27.414Z,27.43
2022-08-07T10:27:10.547Z,27.77
2022-08-07T10:30:06.574Z,27.33
2022-08-07T10:33:06.456Z,27.51
2022-08-07T10:35:55.348Z,27.78
2022-08-07T10:38:48.238Z,27.99
2022-08-07T10:41:51.609Z,27.99
2022-08-07T10:44:37.792Z,28.15
2022-08-07T10:47:18.728Z,28.13
2022-08-07T10:49:59.766Z,28.19
2022-08-07T10:52:34.474Z,28.31
2022-08-07T10:55:27.108Z,28.19
2022-08-07T10:58:06.937Z,27.77
2022-08-07T11:00:50.267Z,27.79
2022-08-07T11:03:37.938Z,27.55
2022-08-07T11:06:23.169Z,27.73
2022-08-07T11:09:00.920Z,27.94
2022-08-07T11:11:35.641Z,28.29
2022-08-07T11:14:43.718Z,28.60
2022-08-07T11:17:07.102Z,28.79
2022-08-07T11:19:43.914Z,28.72
2022-08-07T11:22:32.229Z,28.83
2022-08-07T11:25:11.057Z,28.42
2022-08-07T11:28:02.494Z,28.31
2022-08-07T11:30:41.862Z,28.09
2022-08-07T11:33:53.352Z,28.21
2022-08-07T11:36:25.195Z,28.34
2022-08-07T11:39:00.211Z,28.70
2022-08-07T11:42:02.520Z,28.69
2022-08-07T11:44:29.344Z,28.19
2022-08-07T11:47:02.729Z,28.19
2022-08-07T11:50:30.126Z,28.15
2022-08-07T11:53:05.167Z,28.39
2022-08-07T11:56:09.555Z,28.68
2022-08-07T11:58:49.012Z,28.95
2022-08-07T12:01:59.337Z,28.84
2022-08-07T12:04:38.061Z,28.81
2022-08-07T12:07:27.250Z,28.86
2022-08-07T12:10:05.586Z,29.00
2022-08-07T12:12:39.146Z,29.22
2022-08-07T12:15:35.432Z,29.15
2022-08-07T12:18:11.348Z,28.81
2022-08-07T12:20:49.327Z,28.99
2022-08-07T12:24:05.919Z,28.92
2022-08-07T12:26:29.763Z,28.77
2022-08-07T12:29:08.734Z,28.79
2022-08-07T12:32:02.236Z,28.80
2022-08-07T12:34:33.740Z,28.68
2022-08-07T12:37:08.745Z,28.72
2022-08-07T12:39:50.545Z,28.93
2022-08-07T12:42:28.118Z,28.98
2022-08-07T12:44:59.272Z,28.82
2022-08-07T12:47:37.452Z,28.70
2022-08-07T12:50:38.697Z,28.51
2022-08-07T12:53:05.204Z,28.41
2022-08-07T12:56:02.975Z,28.10
2022-08-07T12:58:39.530Z,27.83
2022-08-07T13:01:21.872Z,28.06
2022-08-07T13:04:13.677Z,27.98
2022-08-07T13:08:13.560Z,28.20
2022-08-07T13:10:38.544Z,28.41
2022-08-07T13:13:48.212Z,28.57
2022-08-07T13:16:13.656Z,28.63
2022-08-07T13:18:50.701Z,28.51
2022-08-07T13:21:37.587Z,28.35
2022-08-07T13:24:20.835Z,28.44
2022-08-07T13:27:02.875Z,28.38
2022-08-07T13:29:42.446Z,28.53
2022-08-07T13:32:31.885Z,28.52
2022-08-07T13:35:08.758Z,28.55
2022-08-07T13:37:43.358Z,28.43
2022-08-07T13:40:35.914Z,28.63
2022-08-07T13:43:13.722Z,28.59
2022-08-07T13:46:11.145Z,28.56
2022-08-07T13:48:38.990Z,28.59
2022-08-07T13:51:27.293Z,28.51
2022-08-07T13:54:03.064Z,28.53
2022-08-07T13:56:36.119Z,28.47
2022-08-07T13:59:15.620Z,28.43
2022-08-07T14:02:03.551Z,28.28
2022-08-07T14:04:49.354Z,28.24
2022-08-07T14:07:22.946Z,28.25
2022-08-07T14:10:08.445Z,28.33
2022-08-07T14:12:54.749Z,28.32
2022-08-07T14:15:35.079Z,28.37
2022-08-07T14:18:27.531Z,28.46
2022-08-07T14:21:20.659Z,28.42
2022-08-07T14:24:01.197Z,28.44
2022-08-07T14:30:07.962Z,28.47
2022-08-07T14:32:16.149Z,28.09
2022-08-07T14:34:49.397Z,28.26
2022-08-07T14:37:36.030Z,28.28
2022-08-07T14:40:17.170Z,28.13
2022-08-07T14:43:01.483Z,28.04
2022-08-07T14:45:49.157Z,27.98
2022-08-07T14:48:21.490Z,28.04
2022-08-07T14:50:57.725Z,28.07
2022-08-07T14:54:08.615Z,28.04
2022-08-07T14:56:30.072Z,27.85
2022-08-07T14:59:02.810Z,27.89
2022-08-07T15:01:42.521Z,27.97
2022-08-07T15:07:17.765Z,27.91
2022-08-07T15:09:59.676Z,27.86
2022-08-07T15:12:34.266Z,27.58
2022-08-07T15:15:09.221Z,27.69
2022-08-07T15:17:55.895Z,27.71
2022-08-07T15:20:33.840Z,27.65
2022-08-07T15:23:21.649Z,27.64
2022-08-07T15:26:21.061Z,27.72
2022-08-07T15:32:01.853Z,27.81
2022-08-07T15:34:35.357Z,27.69
2022-08-07T15:37:06.981Z,27.58
2022-08-07T15:42:51.714Z,27.40
2022-08-07T15:48:25.765Z,27.27
2022-08-07T15:51:01.367Z,27.28
2022-08-07T15:53:42.175Z,27.35
2022-08-07T15:56:24.673Z,27.32
2022-08-07T15:58:57.901Z,27.36
2022-08-07T16:01:38.818Z,27.30
2022-08-07T16:04:14.755Z,27.37
2022-08-07T16:06:50.354Z,27.31
2022-08-07T16:09:41.967Z,27.29
2022-08-07T16:12:25.063Z,27.28
2022-08-07T16:15:42.112Z,27.20
2022-08-07T16:18:08.258Z,27.09
2022-08-07T16:21:42.982Z,27.08
2022-08-07T16:23:53.986Z,27.10
2022-08-07T16:26:36.263Z,27.03
2022-08-07T16:30:07.140Z,27.06
2022-08-07T16:32:06.224Z,27.01
2022-08-07T16:34:41.145Z,26.90
2022-08-07T16:38:06.696Z,26.93
2022-08-07T16:41:16.474Z,26.97
2022-08-07T16:44:46.405Z,26.99
2022-08-07T16:47:36.001Z,26.93
2022-08-07T16:50:35.679Z,26.96
2022-08-07T16:54:02.756Z,26.99
2022-08-07T16:56:13.654Z,27.01
2022-08-07T16:59:10.676Z,26.90
2022-08-07T17:01:50.422Z,26.89
2022-08-07T17:04:32.318Z,26.88
2022-08-07T17:07:10.192Z,26.92
2022-08-07T17:10:08.114Z,26.90
2022-08-07T17:12:46.193Z,26.93
2022-08-07T17:15:21.005Z,26.92
2022-08-07T17:18:00.114Z,26.87
2022-08-07T17:20:35.563Z,26.84
2022-08-07T17:23:16.935Z,26.82
2022-08-07T17:25:54.965Z,26.85
2022-08-07T17:28:41.288Z,26.93
2022-08-07T17:31:26.756Z,26.89
2022-08-07T17:34:18.267Z,26.86
2022-08-07T17:36:59.962Z,26.80
2022-08-07T17:39:58.458Z,26.86
2022-08-07T17:42:59.742Z,26.88
2022-08-07T17:45:35.290Z,26.87
2022-08-07T17:48:11.116Z,26.87
2022-08-07T17:50:56.431Z,26.85
2022-08-07T17:54:00.151Z,26.81
2022-08-07T17:56:31.911Z,26.81
2022-08-07T17:59:05.743Z,26.76
2022-08-07T18:01:47.335Z,26.73
2022-08-07T18:04:31.137Z,26.69
2022-08-07T18:07:20.424Z,26.60
2022-08-07T18:10:07.442Z,26.60
2022-08-07T18:12:53.016Z,26.50
2022-08-07T18:15:32.754Z,26.39
2022-08-07T18:18:46.955Z,26.37
2022-08-07T18:21:37.188Z,26.28
2022-08-07T18:24:00.970Z,26.14
2022-08-07T18:27:10.648Z,26.09
2022-08-07T18:30:31.453Z,25.99
2022-08-07T18:33:39.191Z,25.97
2022-08-07T18:36:32.821Z,25.91
2022-08-07T18:40:07.038Z,25.81
2022-08-07T18:42:13.506Z,25.73
2022-08-07T18:45:43.955Z,25.69
2022-08-07T18:48:01.456Z,25.69
2022-08-07T18:50:47.005Z,25.60
2022-08-07T18:53:36.963Z,25.48
2022-08-07T18:56:15.886Z,25.46
2022-08-07T18:58:58.352Z,25.30
2022-08-07T19:02:32.999Z,25.29
2022-08-07T19:04:38.683Z,25.22
2022-08-07T19:07:34.650Z,25.17
2022-08-07T19:10:14.831Z,25.07
2022-08-07T19:13:11.844Z,25.03
2022-08-07T19:16:04.931Z,24.96
2022-08-07T19:18:44.648Z,24.95
2022-08-07T19:21:47.466Z,24.92
2022-08-07T19:24:11.773Z,24.87
2022-08-07T19:28:30.999Z,24.85
2022-08-07T19:31:05.543Z,24.76
2022-08-07T19:32:46.934Z,24.78
2022-08-07T19:35:24.504Z,24.70
2022-08-07T19:37:58.318Z,24.69
2022-08-07T19:40:31.151Z,24.58
2022-08-07T19:43:08.397Z,24.53
2022-08-07T19:46:07.669Z,24.50
2022-08-07T19:48:42.605Z,24.49
2022-08-07T19:51:20.172Z,24.44
2022-08-07T19:54:31.046Z,24.41
2022-08-07T19:58:02.557Z,24.37
2022-08-07T19:59:41.181Z,24.35
2022-08-07T20:02:15.750Z,24.26
2022-08-07T20:04:51.827Z,24.17
2022-08-07T20:07:46.433Z,24.09
2022-08-07T20:10:36.967Z,24.07
2022-08-07T20:13:22.820Z,24.00
2022-08-07T20:15:55.240Z,23.95
2022-08-07T20:18:32.684Z,23.90
2022-08-07T20:21:20.966Z,23.73
2022-08-07T20:23:54.899Z,23.71
2022-08-07T20:26:32.233Z,23.65
2022-08-07T20:29:46.711Z,23.65
2022-08-07T20:32:00.644Z,23.57
2022-08-07T20:34:49.355Z,23.47
2022-08-07T20:37:25.202Z,23.40
2022-08-07T20:40:02.979Z,23.33
2022-08-07T20:42:35.203Z,23.17
2022-08-07T20:46:24.250Z,23.07
2022-08-07T20:47:58.381Z,22.87
2022-08-07T20:50:29.101Z,22.84
2022-08-07T20:53:00.904Z,22.71
2022-08-07T20:55:31.968Z,22.66
2022-08-07T20:58:03.270Z,22.56
2022-08-07T21:00:42.580Z,22.54
2022-08-07T21:03:14.952Z,22.51
2022-08-07T21:05:55.800Z,22.41
2022-08-07T21:08:37.002Z,22.35
2022-08-07T21:11:10.686Z,22.21
2022-08-07T21:13:57.495Z,22.13
2022-08-07T21:16:37.769Z,22.06
2022-08-07T21:19:32.145Z,21.91
2022-08-07T21:22:19.525Z,21.92
2022-08-07T21:25:12.035Z,21.89
2022-08-07T21:27:53.794Z,21.78
2022-08-07T21:30:30.115Z,21.75
2022-08-07T21:33:14.144Z,21.73
2022-08-07T21:36:05.630Z,21.63
2022-08-07T21:38:45.481Z,21.52
2022-08-07T21:41:25.760Z,21.47
2022-08-07T21:43:58.460Z,21.45
2022-08-07T21:46:37.092Z,21.35
2022-08-07T21:49:14.538Z,21.35
2022-08-07T21:51:55.704Z,21.29
2022-08-07T21:54:30.963Z,21.32
2022-08-07T21:57:30.788Z,21.24
2022-08-07T22:00:07.416Z,21.19
2022-08-07T22:02:42.848Z,21.05
2022-08-07T22:05:22.184Z,21.01
2022-08-07T22:08:03.397Z,20.98
2022-08-07T22:10:35.619Z,20.98
2022-08-07T22:13:09.398Z,20.93
2022-08-07T22:16:44.521Z,20.89
2022-08-07T22:18:37.126Z,20.73
2022-08-07T22:21:12.562Z,20.67
2022-08-07T22:23:45.581Z,20.62
2022-08-07T22:26:21.041Z,20.60
2022-08-07T22:28:58.384Z,20.56
2022-08-07T22:31:59.440Z,20.56
2022-08-07T22:34:35.603Z,20.46
2022-08-07T22:37:12.404Z,20.37
2022-08-07T22:39:53.750Z,20.28
2022-08-07T22:42:25.573Z,20.26
2022-08-07T22:45:02.258Z,20.20
2022-08-07T22:48:02.165Z,20.11
2022-08-07T22:51:06.443Z,20.14
2022-08-07T22:54:06.869Z,20.12
2022-08-07T22:56:46.818Z,20.07
2022-08-07T22:59:42.557Z,19.92
2022-08-07T23:02:40.032Z,19.82
2022-08-07T23:06:08.856Z,19.76
2022-08-07T23:08:46.096Z,19.77
2022-08-07T23:11:35.093Z,19.66
2022-08-07T23:14:26.292Z,19.62
2022-08-07T23:17:15.452Z,19.57
2022-08-07T23:20:10.052Z,19.61
2022-08-07T23:22:52.443Z,19.55
2022-08-07T23:25:34.442Z,19.59
2022-08-07T23:28:21.129Z,19.48
2022-08-07T23:31:18.603Z,19.37
2022-08-07T23:34:38.155Z,19.27
2022-08-07T23:37:22.336Z,19.36
2022-08-07T23:40:04.472Z,19.35
2022-08-07T23:42:53.424Z,19.19
2022-08-07T23:45:33.260Z,19.17
2022-08-07T23:49:02.072Z,19.14
2022-08-07T23:53:00.393Z,19.13
2022-08-07T23:54:43.824Z,19.21
2022-08-07T23:57:20.325Z,19.04
